Time;durP1;ratioP1;P1;durP2;ratioP2;P2;SDS_P1;SDS_P2;PMS_P1;PMS_P2;Temp;Humidity;BMP_temperature;BMP_pressure;BME280_temperature;BME280_humidity;BME280_pressure;Samples;Min_cycle;Max_cycle;Signal;HPM_P1;HPM_P2
2021/12/22 00:02:26;;;;;;;;;;;;;;;-0.24;60.31;100790.97;4451291;32;33313;-54
2021/12/22 00:04:54;;;;;;;;;;;;;;;-0.15;59.76;100787.50;4450122;32;34828;-54
2021/12/22 00:07:21;;;;;;;;;;;;;;;0.05;59.35;100790.03;4451413;32;34443;-54
2021/12/22 00:09:48;;;;;;;;;;;;;;;-0.13;59.60;100794.41;4450625;32;34056;-54
2021/12/22 00:12:16;;;;;;;;;;;;;;;0.01;59.14;100793.53;4450500;32;34176;-54
2021/12/22 00:14:43;;;;;;;;;;;;;;;-0.26;60.22;100798.75;4451340;32;34139;-54
2021/12/22 00:17:10;;;;;;;;;;;;;;;-0.37;60.55;100794.44;4450200;32;34831;-54
2021/12/22 00:19:37;;;;;;;;;;;;;;;-0.22;60.84;100800.47;4451157;32;33521;-54
2021/12/22 00:22:05;;;;;;;;;;;;;;;-0.06;59.90;100810.81;4449441;32;34105;-54
2021/12/22 00:24:34;;;;;;;;;;;;;;;-0.27;59.72;100812.59;4451213;32;33728;-54
2021/12/22 00:27:02;;;;;;;;;;;;;;;-0.39;60.25;100815.19;4449989;32;34399;-54
2021/12/22 00:29:30;;;;;;;;;;;;;;;-0.14;59.71;100816.03;4437026;32;34200;-54
2021/12/22 00:32:18;;;;;;;;;;;;;;;-0.20;59.62;100822.09;4450494;32;33557;-54
2021/12/22 00:34:48;;;;;;;;;;;;;;;-0.25;59.63;100826.44;4449643;32;34879;-54
2021/12/22 00:37:17;;;;;;;;;;;;;;;-0.36;59.43;100841.16;4451067;32;33911;-54
2021/12/22 00:39:44;;;;;;;;;;;;;;;-0.16;59.33;100835.94;4449749;32;34830;-54
2021/12/22 00:42:12;;;;;;;;;;;;;;;-0.04;59.26;100835.06;4450587;32;34021;-54
2021/12/22 00:44:40;;;;;;;;;;;;;;;-0.26;59.52;100840.28;4451883;32;35109;-54
2021/12/22 00:47:09;;;;;;;;;;;;;;;-0.16;59.45;100846.31;4452117;32;34724;-56
2021/12/22 00:49:36;;;;;;;;;;;;;;;-0.28;60.00;100849.78;4452359;32;33866;-54
2021/12/22 00:52:03;;;;;;;;;;;;;;;-0.42;60.83;100851.53;4451345;32;33498;-54
2021/12/22 00:54:31;;;;;;;;;;;;;;;-0.32;60.82;100849.81;4452762;32;34048;-54
2021/12/22 00:57:04;;;;;;;;;;;;;;;-0.29;60.69;100837.69;4451477;32;34503;-54
2021/12/22 00:59:32;;;;;;;;;;;;;;;-0.23;60.56;100839.44;4452752;32;34303;-54
2021/12/22 01:02:00;;;;;;;;;;;;;;;-0.23;60.92;100840.28;4452098;32;33936;-54
2021/12/22 01:04:28;;;;;;;;;;;;;;;-0.24;60.87;100856.72;4451550;32;33890;-54
2021/12/22 01:06:55;;;;;;;;;;;;;;;-0.20;60.62;100849.78;4452753;32;34727;-54
2021/12/22 01:09:22;;;;;;;;;;;;;;;-0.11;60.48;100861.91;4451460;32;34323;-54
2021/12/22 01:11:49;;;;;;;;;;;;;;;-0.11;60.46;100873.16;4452654;32;34232;-54
2021/12/22 01:14:17;;;;;;;;;;;;;;;-0.05;60.25;100867.09;4437254;32;33477;-54
2021/12/22 01:16:48;;;;;;;;;;;;;;;0.02;60.12;100871.44;4452690;32;34753;-54
2021/12/22 01:19:20;;;;;;;;;;;;;;;0.01;59.90;100864.50;4451612;32;33829;-54
2021/12/22 01:21:54;;;;;;;;;;;;;;;0.10;59.64;100866.22;4451658;32;33382;-54
2021/12/22 01:24:29;;;;;;;;;;;;;;;0.07;59.67;100866.22;4452606;32;34318;-54
2021/12/22 01:27:04;;;;;;;;;;;;;;;-0.11;60.27;100861.91;4451448;32;35191;-54
2021/12/22 01:29:32;;;;;;;;;;;;;;;-0.07;60.35;100863.63;4452007;32;34906;-54
2021/12/22 01:32:00;;;;;;;;;;;;;;;0.02;59.99;100871.44;4451899;32;34267;-54
2021/12/22 01:34:27;;;;;;;;;;;;;;;0.13;60.03;100863.59;4452313;32;34265;-54
2021/12/22 01:36:55;;;;;;;;;;;;;;;0.11;59.89;100865.34;4452577;32;34277;-55
2021/12/22 01:39:22;;;;;;;;;;;;;;;0.05;59.99;100865.34;4450476;32;33767;-54
2021/12/22 01:41:49;;;;;;;;;;;;;;;0.05;59.86;100865.34;4452491;32;33729;-54
2021/12/22 01:44:46;;;;;;;;;;;;;;;-0.02;59.89;100864.47;4451228;32;33425;-54
2021/12/22 01:50:00;;;;;;;;;;;;;;;-0.02;60.17;100870.56;4439753;32;33617;-54
2021/12/22 01:52:27;;;;;;;;;;;;;;;0.25;59.31;100867.91;4451213;32;33814;-54
2021/12/22 01:55:03;;;;;;;;;;;;;;;0.18;59.54;100862.72;4452011;32;34360;-55
2021/12/22 01:57:32;;;;;;;;;;;;;;;0.20;59.69;100870.53;4450911;32;34796;-54
2021/12/22 02:00:01;;;;;;;;;;;;;;;0.46;59.13;100862.66;4452206;32;34123;-54
2021/12/22 02:02:39;;;;;;;;;;;;;;;0.22;59.60;100875.72;4452273;32;33319;-54
2021/12/22 02:05:07;;;;;;;;;;;;;;;0.49;59.36;100874.81;4450910;32;34235;-54
2021/12/22 02:07:35;;;;;;;;;;;;;;;0.38;59.38;100867.87;4451993;32;34021;-54
2021/12/22 02:10:47;;;;;;;;;;;;;;;0.37;59.72;100878.28;4435551;32;34556;-54
2021/12/22 02:12:55;;;;;;;;;;;;;;;0.29;59.99;100878.31;4430806;32;33504;-54
2021/12/22 02:15:22;;;;;;;;;;;;;;;0.32;60.10;100874.84;4436492;32;34343;-54
2021/12/22 02:17:50;;;;;;;;;;;;;;;0.50;59.57;100874.78;4439395;32;34842;-55
2021/12/22 02:20:17;;;;;;;;;;;;;;;0.49;59.39;100873.06;4452231;32;34524;-54
2021/12/22 02:22:45;;;;;;;;;;;;;;;0.52;59.53;100875.62;4450828;32;33315;-54
2021/12/22 02:25:18;;;;;;;;;;;;;;;0.51;59.57;100870.47;4452371;32;34310;-54
2021/12/22 02:27:53;;;;;;;;;;;;;;;0.51;59.36;100862.66;4450559;32;35415;-55
2021/12/22 02:30:27;;;;;;;;;;;;;;;0.39;59.69;100873.97;4451755;32;34551;-55
2021/12/22 02:35:37;;;;;;;;;;;;;;;0.65;59.00;100870.41;4450859;32;35017;-54
2021/12/22 02:38:12;;;;;;;;;;;;;;;0.64;58.88;100866.06;4451809;32;35256;-55
2021/12/22 02:40:40;;;;;;;;;;;;;;;0.64;59.06;100869.56;4450942;32;34646;-54
2021/12/22 02:43:08;;;;;;;;;;;;;;;0.65;59.20;100867.81;4451974;32;33407;-54
2021/12/22 02:45:36;;;;;;;;;;;;;;;0.74;59.11;100878.19;4451745;32;34054;-54
2021/12/22 02:48:05;;;;;;;;;;;;;;;0.76;59.00;100872.09;4450500;32;35687;-54
2021/12/22 02:50:36;;;;;;;;;;;;;;;0.57;59.51;100870.44;4452314;32;33821;-55
2021/12/22 02:53:06;;;;;;;;;;;;;;;0.55;59.73;100878.22;4451113;32;33392;-54
2021/12/22 02:55:47;;;;;;;;;;;;;;;0.69;59.55;100866.94;4452094;32;35130;-54
2021/12/22 02:58:26;;;;;;;;;;;;;;;0.89;58.85;100870.31;4450691;32;34105;-55
2021/12/22 03:03:35;;;;;;;;;;;;;;;0.80;59.22;100867.75;4436769;32;33511;-54
2021/12/22 03:06:07;;;;;;;;;;;;;;;0.82;58.93;100868.59;4435253;32;35189;-54
2021/12/22 03:08:34;;;;;;;;;;;;;;;0.83;59.12;100883.31;4437046;32;34929;-54
2021/12/22 03:11:01;;;;;;;;;;;;;;;0.89;59.12;100883.31;4450865;32;34719;-54
2021/12/22 03:13:31;;;;;;;;;;;;;;;0.94;58.54;100888.50;4451448;32;34256;-54
2021/12/22 03:15:58;;;;;;;;;;;;;;;0.84;58.76;100892.00;4451737;32;33570;-54
2021/12/22 03:18:25;;;;;;;;;;;;;;;0.96;58.50;100886.75;4449762;32;34747;-55
2021/12/22 03:21:01;;;;;;;;;;;;;;;0.88;58.72;100891.13;4451515;32;34276;-54
2021/12/22 03:23:28;;;;;;;;;;;;;;;1.07;57.97;100889.31;4450569;32;33883;-54
2021/12/22 03:25:58;;;;;;;;;;;;;;;1.04;58.09;100891.91;4451788;32;34115;-54
2021/12/22 03:28:25;;;;;;;;;;;;;;;0.95;58.54;100888.50;4450952;32;34860;-54
2021/12/22 03:30:53;;;;;;;;;;;;;;;0.99;58.50;100884.16;4450821;32;34162;-54
2021/12/22 03:33:21;;;;;;;;;;;;;;;0.92;58.51;100883.28;4451826;32;33651;-55
2021/12/22 03:35:48;;;;;;;;;;;;;;;1.05;58.27;100897.13;4450470;32;33723;-54
2021/12/22 03:38:15;;;;;;;;;;;;;;;1.00;58.17;100898.84;4451529;32;35631;-54
2021/12/22 03:40:43;;;;;;;;;;;;;;;1.06;58.19;100897.97;4449302;32;34358;-54
2021/12/22 03:43:10;;;;;;;;;;;;;;;0.97;58.78;100894.53;4452018;32;33320;-54
2021/12/22 03:45:37;;;;;;;;;;;;;;;1.02;58.74;100894.50;4451202;32;33609;-54
2021/12/22 03:48:06;;;;;;;;;;;;;;;0.90;59.12;100897.19;4450903;32;34857;-54
2021/12/22 03:50:33;;;;;;;;;;;;;;;1.05;58.85;100901.44;4450732;32;34982;-54
2021/12/22 03:53:01;;;;;;;;;;;;;;;1.14;58.51;100904.00;4450366;32;33173;-54
2021/12/22 03:55:28;;;;;;;;;;;;;;;0.98;58.79;100898.84;4451621;32;34270;-54
2021/12/22 03:57:57;;;;;;;;;;;;;;;1.13;58.54;100897.06;4450233;32;34734;-55
2021/12/22 04:00:24;;;;;;;;;;;;;;;0.98;58.66;100891.06;4450875;32;34963;-54
2021/12/22 04:02:51;;;;;;;;;;;;;;;1.44;57.25;100897.75;4450836;32;32920;-54
2021/12/22 04:05:19;;;;;;;;;;;;;;;0.98;58.45;100887.59;4450821;32;35172;-54
2021/12/22 04:07:46;;;;;;;;;;;;;;;1.18;57.94;100896.19;4451335;32;34382;-54
2021/12/22 04:10:21;;;;;;;;;;;;;;;1.08;58.10;100902.28;4449808;32;34043;-54
2021/12/22 04:12:55;;;;;;;;;;;;;;;1.06;58.06;100906.62;4451429;32;33852;-54
2021/12/22 04:15:24;;;;;;;;;;;;;;;1.00;58.46;100913.59;4450045;32;34123;-55
2021/12/22 04:17:51;;;;;;;;;;;;;;;0.92;59.06;100911.03;4450746;32;35522;-55
2021/12/22 04:20:18;;;;;;;;;;;;;;;0.89;59.60;100909.31;4450909;32;35317;-54
2021/12/22 04:22:46;;;;;;;;;;;;;;;0.95;59.50;100911.91;4435216;32;33231;-54
2021/12/22 04:25:20;;;;;;;;;;;;;;;1.06;59.23;100921.37;4446683;32;34079;-54
2021/12/22 04:27:52;;;;;;;;;;;;;;;1.06;59.04;100929.19;4449820;32;34563;-54
2021/12/22 04:30:19;;;;;;;;;;;;;;;1.03;59.06;100926.59;4451053;32;34442;-54
2021/12/22 04:32:46;;;;;;;;;;;;;;;1.00;59.36;100930.06;4449816;32;34144;-54
2021/12/22 04:35:14;;;;;;;;;;;;;;;0.97;59.59;100930.09;4450676;32;34798;-55
2021/12/22 04:37:41;;;;;;;;;;;;;;;1.12;59.21;100921.34;4450576;32;34672;-54
2021/12/22 04:40:09;;;;;;;;;;;;;;;1.13;59.28;100921.34;4450067;32;34566;-55
2021/12/22 04:42:36;;;;;;;;;;;;;;;1.13;58.87;100933.50;4450840;32;34177;-54
2021/12/22 04:45:06;;;;;;;;;;;;;;;1.11;58.85;100927.44;4449590;32;34495;-54
2021/12/22 04:47:33;;;;;;;;;;;;;;;1.12;58.81;100930.00;4437118;32;35020;-54
2021/12/22 04:50:02;;;;;;;;;;;;;;;1.23;58.52;100924.75;4435853;32;34366;-54
2021/12/22 04:52:40;;;;;;;;;;;;;;;1.27;58.36;100921.28;4450018;32;33461;-55
2021/12/22 04:55:07;;;;;;;;;;;;;;;1.21;58.52;100916.09;4450697;32;34193;-54
2021/12/22 04:57:34;;;;;;;;;;;;;;;1.29;58.33;100922.13;4449354;32;34511;-54
2021/12/22 05:00:04;;;;;;;;;;;;;;;1.30;58.07;100922.97;4450815;32;34919;-54
2021/12/22 05:02:31;;;;;;;;;;;;;;;1.11;58.54;100930.91;4449111;32;33748;-54
2021/12/22 05:04:58;;;;;;;;;;;;;;;1.24;58.53;100923.91;4450799;32;33800;-54
2021/12/22 05:07:26;;;;;;;;;;;;;;;1.26;58.62;100921.28;4449820;32;34721;-54
2021/12/22 05:09:53;;;;;;;;;;;;;;;1.43;58.26;100924.66;4449778;32;34295;-54
2021/12/22 05:12:20;;;;;;;;;;;;;;;1.31;58.63;100922.13;4450250;32;33001;-54
2021/12/22 05:14:51;;;;;;;;;;;;;;;1.44;58.45;100928.13;4433603;32;34164;-54
2021/12/22 05:18:00;;;;;;;;;;;;;;;1.42;58.03;100929.88;4439888;32;35342;-54
2021/12/22 05:20:10;;;;;;;;;;;;;;;1.40;57.84;100931.59;4447323;32;34663;-54
2021/12/22 05:22:37;;;;;;;;;;;;;;;1.42;57.69;100925.53;4450273;32;33535;-54
2021/12/22 05:25:05;;;;;;;;;;;;;;;1.43;57.86;100932.44;4450036;32;33931;-54
2021/12/22 05:27:32;;;;;;;;;;;;;;;1.31;58.28;100927.31;4448346;32;35323;-54
2021/12/22 05:30:00;;;;;;;;;;;;;;;1.31;57.94;100933.38;4435180;32;34367;-54
2021/12/22 05:32:31;;;;;;;;;;;;;;;1.27;57.93;100936.88;4435889;32;33287;-55
2021/12/22 05:34:59;;;;;;;;;;;;;;;1.50;57.58;100935.91;4437149;32;34295;-54
2021/12/22 05:37:26;;;;;;;;;;;;;;;1.33;57.73;100942.06;4445750;32;34576;-55
2021/12/22 05:39:56;;;;;;;;;;;;;;;1.50;57.22;100943.72;4452195;32;35275;-54
2021/12/22 05:42:25;;;;;;;;;;;;;;;1.33;57.42;100941.19;4452239;32;33683;-54
2021/12/22 05:44:52;;;;;;;;;;;;;;;1.31;57.76;100951.59;4437479;32;34071;-54
2021/12/22 05:47:19;;;;;;;;;;;;;;;1.34;57.85;100953.34;4451194;32;35238;-54
2021/12/22 05:49:48;;;;;;;;;;;;;;;1.23;57.98;100956.00;4450980;32;33812;-54
2021/12/22 05:52:16;;;;;;;;;;;;;;;1.25;57.85;100958.59;4452559;32;33413;-54
2021/12/22 05:54:43;;;;;;;;;;;;;;;1.21;57.98;100949.94;4450865;32;33511;-55
2021/12/22 05:57:11;;;;;;;;;;;;;;;1.26;57.77;100958.59;4450561;32;34738;-54
2021/12/22 05:59:38;;;;;;;;;;;;;;;1.27;57.64;100956.84;4451708;32;35101;-55
2021/12/22 06:02:05;;;;;;;;;;;;;;;1.40;57.36;100955.91;4451294;32;34341;-54
2021/12/22 06:04:33;;;;;;;;;;;;;;;1.37;57.53;100955.91;4451859;32;34286;-54
2021/12/22 06:07:00;;;;;;;;;;;;;;;1.37;57.46;100964.59;4451105;32;33628;-55
2021/12/22 06:09:27;;;;;;;;;;;;;;;1.33;57.69;100975.87;4451732;32;35195;-54
2021/12/22 06:11:55;;;;;;;;;;;;;;;1.45;57.22;100972.34;4451230;32;33270;-54
2021/12/22 06:14:22;;;;;;;;;;;;;;;1.36;57.31;100975.87;4447611;32;34773;-54
2021/12/22 06:16:49;;;;;;;;;;;;;;;1.25;57.48;100984.62;4451871;32;34849;-54
2021/12/22 06:19:16;;;;;;;;;;;;;;;1.24;57.62;100977.66;4447922;32;35289;-55
2021/12/22 06:21:46;;;;;;;;;;;;;;;1.05;58.42;100992.47;4436846;32;33250;-54
2021/12/22 06:24:13;;;;;;;;;;;;;;;1.27;57.82;100994.13;4435778;32;33488;-54
2021/12/22 06:26:40;;;;;;;;;;;;;;;1.15;57.68;100989.00;4448873;32;34431;-54
2021/12/22 06:29:07;;;;;;;;;;;;;;;1.26;57.17;100995.03;4450150;32;32914;-54
2021/12/22 06:31:35;;;;;;;;;;;;;;;1.27;56.96;100991.53;4440381;32;33275;-55
2021/12/22 06:34:03;;;;;;;;;;;;;;;1.05;57.97;100995.97;4451397;32;34041;-55
2021/12/22 06:36:30;;;;;;;;;;;;;;;1.24;57.46;100999.37;4450162;32;34793;-54
2021/12/22 06:38:58;;;;;;;;;;;;;;;1.27;57.26;101003.69;4451702;32;34897;-55
2021/12/22 06:41:25;;;;;;;;;;;;;;;1.16;58.08;101006.31;4431603;32;34243;-54
2021/12/22 06:43:52;;;;;;;;;;;;;;;1.15;58.15;101009.81;4437502;32;34044;-56
2021/12/22 06:46:19;;;;;;;;;;;;;;;1.30;57.77;101016.66;4450744;32;35182;-54
2021/12/22 06:48:47;;;;;;;;;;;;;;;1.21;58.15;101024.53;4451845;32;34219;-54
2021/12/22 06:51:14;;;;;;;;;;;;;;;1.39;57.61;101024.44;4437005;32;33490;-55
2021/12/22 06:53:41;;;;;;;;;;;;;;;1.20;58.39;101030.59;4451203;32;34126;-54
2021/12/22 06:56:09;;;;;;;;;;;;;;;1.21;58.31;101034.94;4451672;32;35166;-54
2021/12/22 06:58:36;;;;;;;;;;;;;;;1.22;58.50;101026.25;4450622;32;33321;-55
2021/12/22 07:01:03;;;;;;;;;;;;;;;1.09;58.97;101030.63;4450903;32;33845;-54
2021/12/22 07:03:31;;;;;;;;;;;;;;;1.12;59.04;101033.22;4450046;32;34752;-54
2021/12/22 07:05:58;;;;;;;;;;;;;;;1.16;58.83;101032.31;4451160;32;34627;-55
2021/12/22 07:08:25;;;;;;;;;;;;;;;1.32;58.57;101030.56;4451007;32;34309;-54
2021/12/22 07:10:52;;;;;;;;;;;;;;;1.14;59.44;101041.88;4444416;32;33170;-55
2021/12/22 07:13:19;;;;;;;;;;;;;;;1.32;63.48;101038.38;4437025;32;33841;-54
2021/12/22 07:15:46;;;;;;;;;;;;;;;1.17;60.94;101045.34;4449920;32;34310;-54
2021/12/22 07:18:14;;;;;;;;;;;;;;;1.33;59.91;101035.75;4450485;32;34457;-54
2021/12/22 07:20:41;;;;;;;;;;;;;;;1.27;59.48;101040.97;4450073;32;32880;-54
2021/12/22 07:23:08;;;;;;;;;;;;;;;1.52;58.66;101039.12;4447574;32;35590;-54
2021/12/22 07:25:36;;;;;;;;;;;;;;;1.42;58.28;101037.47;4450576;32;34878;-54
2021/12/22 07:28:03;;;;;;;;;;;;;;;1.38;58.67;101048.75;4442129;32;34779;-55
2021/12/22 07:30:30;;;;;;;;;;;;;;;1.42;58.64;101042.66;4450435;32;33083;-54
2021/12/22 07:32:59;;;;;;;;;;;;;;;1.46;58.44;101041.78;4444474;32;34352;-55
2021/12/22 07:35:34;;;;;;;;;;;;;;;1.66;57.62;101048.62;4450477;32;34749;-54
2021/12/22 07:38:11;;;;;;;;;;;;;;;1.45;58.04;101044.38;4435657;32;34988;-54
2021/12/22 07:40:39;;;;;;;;;;;;;;;1.46;58.53;101046.13;4451159;32;33500;-55
2021/12/22 07:43:06;;;;;;;;;;;;;;;1.43;58.32;101044.38;4435233;32;34293;-54
2021/12/22 07:45:33;;;;;;;;;;;;;;;1.49;59.20;101052.19;4439822;32;34466;-55
2021/12/22 07:48:01;;;;;;;;;;;;;;;1.40;58.98;101043.53;4451352;32;33700;-55
2021/12/22 07:50:28;;;;;;;;;;;;;;;1.51;58.28;101055.66;4449732;32;33304;-54
2021/12/22 07:52:55;;;;;;;;;;;;;;;1.57;58.14;101062.53;4450313;32;34858;-55
2021/12/22 07:55:23;;;;;;;;;;;;;;;1.83;57.20;101072.00;4450133;32;35178;-55
2021/12/22 07:57:50;;;;;;;;;;;;;;;1.82;56.51;101071.09;4450792;32;34602;-54
2021/12/22 08:00:17;;;;;;;;;;;;;;;1.77;56.54;101072.88;4450742;32;34179;-55
2021/12/22 08:02:44;;;;;;;;;;;;;;;1.75;56.16;101077.25;4450221;32;34905;-55
2021/12/22 08:05:32;;;;;;;;;;;;;;;1.94;55.41;101080.63;4451195;32;35075;-54
2021/12/22 08:08:00;;;;;;;;;;;;;;;1.82;54.69;101080.66;4435536;32;34635;-55
2021/12/22 08:10:27;;;;;;;;;;;;;;;1.94;54.66;101081.47;4425787;32;785768;-54
2021/12/22 08:12:55;;;;;;;;;;;;;;;1.87;54.51;101082.38;4450284;32;34975;-55
2021/12/22 08:15:25;;;;;;;;;;;;;;;1.74;54.36;101081.56;4450508;32;34747;-55
2021/12/22 08:17:53;;;;;;;;;;;;;;;1.89;54.22;101077.16;4450805;32;34960;-55
2021/12/22 08:20:20;;;;;;;;;;;;;;;1.92;54.19;101084.94;4449729;32;33542;-54
2021/12/22 08:22:48;;;;;;;;;;;;;;;2.00;53.70;101084.91;4441336;32;33832;-54
2021/12/22 08:25:15;;;;;;;;;;;;;;;2.16;53.35;101084.81;4434027;32;33725;-55
2021/12/22 08:27:42;;;;;;;;;;;;;;;2.00;52.76;101085.78;4435564;32;34408;-54
2021/12/22 08:30:10;;;;;;;;;;;;;;;2.08;52.84;101084.00;4434513;32;33934;-54
2021/12/22 08:32:37;;;;;;;;;;;;;;;2.03;52.70;101088.34;4434684;32;34051;-56
2021/12/22 08:35:06;;;;;;;;;;;;;;;2.06;52.61;101090.09;4446862;32;35560;-55
2021/12/22 08:40:20;;;;;;;;;;;;;;;1.99;53.08;101104.03;4435370;32;33635;-55
2021/12/22 08:42:49;;;;;;;;;;;;;;;2.10;52.78;101102.25;4433943;32;33588;-55
2021/12/22 08:45:17;;;;;;;;;;;;;;;1.99;52.12;101107.50;4436657;32;34739;-55
2021/12/22 08:47:45;;;;;;;;;;;;;;;2.05;55.83;101110.06;4446329;32;35177;-55
2021/12/22 08:50:13;;;;;;;;;;;;;;;2.20;53.01;101098.69;4449335;32;33415;-55
2021/12/22 08:52:40;;;;;;;;;;;;;;;2.07;52.17;101110.06;4435073;32;34950;-55
2021/12/22 08:55:08;;;;;;;;;;;;;;;2.17;51.88;101106.50;4441723;32;34386;-55
2021/12/22 08:57:35;;;;;;;;;;;;;;;2.17;51.72;101110.00;4450231;32;35100;-55
2021/12/22 09:00:07;;;;;;;;;;;;;;;2.33;51.62;101113.38;4448777;32;33001;-55
2021/12/22 09:02:35;;;;;;;;;;;;;;;2.25;51.79;101106.47;4434683;32;35012;-55
2021/12/22 09:05:04;;;;;;;;;;;;;;;2.41;51.87;101113.34;4447477;32;34082;-55
2021/12/22 09:07:31;;;;;;;;;;;;;;;2.44;51.54;101113.28;4450950;32;34157;-55
2021/12/22 09:09:58;;;;;;;;;;;;;;;2.01;51.47;101116.16;4452565;32;33586;-55
2021/12/22 09:12:27;;;;;;;;;;;;;;;2.37;56.63;101111.63;4449176;32;33710;-54
2021/12/22 09:14:54;;;;;;;;;;;;;;;2.26;55.83;101111.69;4452079;32;34836;-55
2021/12/22 09:17:21;;;;;;;;;;;;;;;2.59;53.15;101108.84;4451275;32;35017;-55
2021/12/22 09:19:52;;;;;;;;;;;;;;;2.59;51.15;101107.09;4452050;32;33218;-55
2021/12/22 09:22:19;;;;;;;;;;;;;;;2.67;49.10;101110.50;4437092;32;33985;-55
2021/12/22 09:24:46;;;;;;;;;;;;;;;2.73;48.56;101105.28;4435973;32;35622;-56
2021/12/22 09:27:14;;;;;;;;;;;;;;;2.79;48.73;101112.16;4436574;32;35327;-55
2021/12/22 09:29:42;;;;;;;;;;;;;;;2.95;48.07;101108.56;4443971;32;33166;-55
2021/12/22 09:32:14;;;;;;;;;;;;;;;2.83;47.97;101111.28;4452415;32;34637;-55
2021/12/22 09:34:42;;;;;;;;;;;;;;;2.81;47.65;101107.81;4437170;32;35665;-55
2021/12/22 09:37:10;;;;;;;;;;;;;;;2.88;46.94;101113.84;4451247;32;35131;-55
2021/12/22 09:39:37;;;;;;;;;;;;;;;2.85;46.98;101113.84;4438012;32;33482;-55
2021/12/22 09:42:05;;;;;;;;;;;;;;;3.14;46.49;101116.19;4450829;32;34242;-55
2021/12/22 09:44:37;;;;;;;;;;;;;;;3.22;46.82;101117.00;4451939;32;35629;-55
2021/12/22 09:47:05;;;;;;;;;;;;;;;3.13;47.09;101117.94;4451142;32;34293;-55
2021/12/22 09:52:23;;;;;;;;;;;;;;;3.13;46.71;101104.03;4451385;32;33769;-55
2021/12/22 09:54:59;;;;;;;;;;;;;;;3.01;47.22;101112.00;4451277;32;34872;-56
2021/12/22 09:57:27;;;;;;;;;;;;;;;3.02;46.09;101100.66;4451488;32;34095;-56
2021/12/22 09:59:55;;;;;;;;;;;;;;;2.96;46.16;101105.03;4451019;32;33645;-55
2021/12/22 10:02:25;;;;;;;;;;;;;;;2.84;46.59;101106.91;4452037;32;34978;-55
2021/12/22 10:04:53;;;;;;;;;;;;;;;3.18;46.44;101101.37;4450142;32;34741;-55
2021/12/22 10:07:25;;;;;;;;;;;;;;;3.24;46.33;101098.69;4451432;32;34136;-55
2021/12/22 10:09:53;;;;;;;;;;;;;;;3.27;46.51;101106.50;4450505;32;33297;-55
2021/12/22 10:12:22;;;;;;;;;;;;;;;3.03;46.07;101108.47;4444304;32;34120;-55
2021/12/22 10:14:50;;;;;;;;;;;;;;;3.10;46.21;101099.72;4452352;32;34225;-55
2021/12/22 10:17:27;;;;;;;;;;;;;;;3.04;47.14;101096.28;4447099;32;33640;-55
2021/12/22 10:19:58;;;;;;;;;;;;;;;3.04;46.77;101110.19;4436050;32;33283;-55
2021/12/22 10:22:29;;;;;;;;;;;;;;;3.30;46.84;101098.66;4443237;32;34078;-55
2021/12/22 10:25:01;;;;;;;;;;;;;;;3.22;47.62;101101.34;4451239;32;34785;-55
2021/12/22 10:27:29;;;;;;;;;;;;;;;3.25;46.73;101103.91;4451598;32;34526;-55
2021/12/22 10:29:56;;;;;;;;;;;;;;;2.93;45.69;101099.88;4444843;32;33206;-55
2021/12/22 10:32:23;;;;;;;;;;;;;;;3.08;46.37;101097.97;4436246;32;34456;-55
2021/12/22 10:34:59;;;;;;;;;;;;;;;3.32;46.51;101089.91;4435035;32;34214;-55
2021/12/22 10:37:36;;;;;;;;;;;;;;;3.19;46.73;101092.66;4436239;32;34177;-55
2021/12/22 10:40:20;;;;;;;;;;;;;;;3.37;45.65;101087.22;4436683;32;32692;-55
2021/12/22 10:42:48;;;;;;;;;;;;;;;3.24;45.50;101085.63;4434657;32;33843;-55
2021/12/22 10:45:16;;;;;;;;;;;;;;;3.37;45.27;101089.84;4436520;32;34546;-55
2021/12/22 10:50:33;;;;;;;;;;;;;;;3.31;45.45;101087.31;4451278;32;33283;-55
2021/12/22 10:53:00;;;;;;;;;;;;;;;3.31;45.55;101087.31;4443113;32;34122;-55
2021/12/22 10:55:40;;;;;;;;;;;;;;;3.33;46.21;101078.59;4434958;32;34831;-55
2021/12/22 10:58:15;;;;;;;;;;;;;;;3.67;57.14;101079.94;4439040;32;34729;-55
2021/12/22 11:00:43;;;;;;;;;;;;;;;3.57;47.74;101089.62;4435452;32;33341;-55
2021/12/22 11:03:13;;;;;;;;;;;;;;;3.51;45.67;101081.88;4451058;32;34224;-55
2021/12/22 11:05:47;;;;;;;;;;;;;;;3.44;46.03;101088.03;4451203;32;36051;-55
2021/12/22 11:08:18;;;;;;;;;;;;;;;3.26;45.47;101082.16;4450612;32;34028;-55
2021/12/22 11:10:46;;;;;;;;;;;;;;;3.63;45.62;101067.81;4450940;32;33921;-55
2021/12/22 11:13:17;;;;;;;;;;;;;;;3.44;45.70;101068.00;4440527;32;33668;-55
2021/12/22 11:15:44;;;;;;;;;;;;;;;3.42;45.64;101072.38;4436127;32;34644;-55
2021/12/22 11:18:33;;;;;;;;;;;;;;;3.79;45.27;101068.47;4434751;32;34876;-55
2021/12/22 11:21:12;;;;;;;;;;;;;;;3.62;45.49;101066.91;4443203;32;32703;-55
2021/12/22 11:23:40;;;;;;;;;;;;;;;3.76;45.19;101066.72;4448870;32;34266;-54
2021/12/22 11:26:07;;;;;;;;;;;;;;;3.65;44.72;101059.06;4449535;32;35392;-55
2021/12/22 11:28:35;;;;;;;;;;;;;;;3.66;44.76;101063.38;4449885;32;34649;-55
2021/12/22 11:31:03;;;;;;;;;;;;;;;3.68;44.78;101061.63;4436030;32;33544;-55
2021/12/22 11:33:31;;;;;;;;;;;;;;;3.74;44.79;101058.94;4437097;32;34342;-55
2021/12/22 11:35:59;;;;;;;;;;;;;;;3.54;45.00;101055.72;4450869;32;35710;-55
2021/12/22 11:38:27;;;;;;;;;;;;;;;3.69;45.01;101050.28;4449795;32;33976;-55
2021/12/22 11:40:56;;;;;;;;;;;;;;;3.86;45.12;101044.84;4451179;32;33202;-55
2021/12/22 11:43:24;;;;;;;;;;;;;;;3.86;45.20;101049.22;4449291;32;33496;-55
2021/12/22 11:45:52;;;;;;;;;;;;;;;3.93;44.62;101043.00;4442045;32;35144;-55
2021/12/22 11:48:19;;;;;;;;;;;;;;;3.83;45.53;101044.03;4435702;32;34019;-55
2021/12/22 11:50:47;;;;;;;;;;;;;;;3.90;45.07;101037.84;4436122;32;34149;-55
2021/12/22 11:53:14;;;;;;;;;;;;;;;3.87;45.11;101038.72;4438934;32;34211;-55
2021/12/22 11:55:45;;;;;;;;;;;;;;;3.83;46.63;101033.56;4449306;32;35411;-56
2021/12/22 11:58:14;;;;;;;;;;;;;;;3.80;45.65;101038.81;4447669;32;33992;-55
2021/12/22 12:00:44;;;;;;;;;;;;;;;3.83;45.69;101039.66;4450030;32;34110;-55
2021/12/22 12:03:20;;;;;;;;;;;;;;;3.93;45.05;101035.16;4450355;32;34028;-55
2021/12/22 12:06:01;;;;;;;;;;;;;;;3.87;45.26;101032.63;4449660;32;34320;-55
2021/12/22 12:08:35;;;;;;;;;;;;;;;3.91;45.63;101029.09;4450121;32;34405;-55
2021/12/22 12:11:06;;;;;;;;;;;;;;;3.87;45.45;101027.41;4450475;32;33940;-55
2021/12/22 12:21:55;;;;;;;;;;;;;;;3.90;44.81;101024.75;4449103;32;33170;-55
2021/12/22 12:24:35;;;;;;;;;;;;;;;3.55;45.63;101028.72;4450759;32;34062;-55
2021/12/22 12:27:22;;;;;;;;;;;;;;;3.78;45.09;101022.31;4447576;32;34579;-55
2021/12/22 12:29:52;;;;;;;;;;;;;;;3.82;45.24;101021.38;4448804;32;35224;-56
2021/12/22 12:32:38;;;;;;;;;;;;;;;3.88;55.62;101031.75;4441785;32;33120;-55
2021/12/22 12:35:28;;;;;;;;;;;;;;;3.76;47.24;101027.53;4449148;32;34912;-55
2021/12/22 12:38:16;;;;;;;;;;;;;;;3.80;46.06;101017.91;4450272;32;34287;-55
2021/12/22 12:43:42;;;;;;;;;;;;;;;4.26;61.50;101018.09;4450971;32;33433;-55
2021/12/22 12:46:19;;;;;;;;;;;;;;;4.12;51.46;101022.69;4423108;32;34945;-55
2021/12/22 12:48:55;;;;;;;;;;;;;;;3.94;47.40;101019.47;4435992;32;34738;-55
2021/12/22 12:51:25;;;;;;;;;;;;;;;3.92;46.27;101009.94;4445508;32;34481;-55
2021/12/22 12:53:52;;;;;;;;;;;;;;;3.92;46.33;101017.75;4452611;32;34523;-55
2021/12/22 12:56:31;;;;;;;;;;;;;;;4.21;46.04;101016.47;4437511;32;33854;-55
2021/12/22 12:58:59;;;;;;;;;;;;;;;4.03;45.97;101021.09;4452301;32;34030;-55
2021/12/22 13:01:51;;;;;;;;;;;;;;;4.11;45.95;101020.94;4450782;32;33967;-55
2021/12/22 13:04:27;;;;;;;;;;;;;;;4.05;46.27;101024.53;4451843;32;34100;-55
2021/12/22 13:07:01;;;;;;;;;;;;;;;4.10;45.87;101017.47;4451987;32;33944;-56
2021/12/22 13:09:28;;;;;;;;;;;;;;;3.93;46.43;101015.09;4450724;32;35309;-55
2021/12/22 13:12:12;;;;;;;;;;;;;;;3.79;46.09;101014.44;4452233;32;35054;-55
2021/12/22 13:17:27;;;;;;;;;;;;;;;3.97;46.44;101009.84;4451285;32;34951;-55
2021/12/22 13:19:55;;;;;;;;;;;;;;;3.89;45.99;101016.03;4452359;32;34217;-55
2021/12/22 13:22:23;;;;;;;;;;;;;;;3.92;46.26;101013.41;4449856;32;34040;-55
2021/12/22 13:25:09;;;;;;;;;;;;;;;3.86;46.15;101020.47;4452289;32;33313;-55
2021/12/22 13:27:38;;;;;;;;;;;;;;;3.83;46.17;101017.88;4451331;32;34854;-55
2021/12/22 13:30:16;;;;;;;;;;;;;;;3.72;46.83;101018.91;4437658;32;34860;-55